sensor_id;sensor_type;location;lat;lon;timestamp;P1;durP1;ratioP1;P2;durP2;ratioP2
7495;SDS011;3789;47.064;15.482;2023-11-21T00:00:50;18.00;;;10.90;;
7495;SDS011;3789;47.064;15.482;2023-11-21T00:03:21;15.50;;;10.53;;
7495;SDS011;3789;47.064;15.482;2023-11-21T00:06:01;18.13;;;9.80;;
7495;SDS011;3789;47.064;15.482;2023-11-21T00:08:31;13.23;;;9.90;;
7495;SDS011;3789;47.064;15.482;2023-11-21T00:11:03;13.13;;;9.63;;
7495;SDS011;3789;47.064;15.482;2023-11-21T00:13:34;12.80;;;9.13;;
7495;SDS011;3789;47.064;15.482;2023-11-21T00:16:09;16.37;;;8.97;;
7495;SDS011;3789;47.064;15.482;2023-11-21T00:18:40;14.93;;;9.70;;
7495;SDS011;3789;47.064;15.482;2023-11-21T00:21:18;12.63;;;8.60;;
7495;SDS011;3789;47.064;15.482;2023-11-21T00:23:48;13.33;;;8.87;;
7495;SDS011;3789;47.064;15.482;2023-11-21T00:26:20;12.30;;;8.70;;
7495;SDS011;3789;47.064;15.482;2023-11-21T00:28:53;13.87;;;10.20;;
7495;SDS011;3789;47.064;15.482;2023-11-21T00:31:22;14.57;;;9.03;;
7495;SDS011;3789;47.064;15.482;2023-11-21T00:33:53;15.23;;;10.60;;
7495;SDS011;3789;47.064;15.482;2023-11-21T00:36:27;15.27;;;10.80;;
7495;SDS011;3789;47.064;15.482;2023-11-21T00:38:58;17.67;;;10.77;;
7495;SDS011;3789;47.064;15.482;2023-11-21T00:41:27;15.93;;;10.80;;
7495;SDS011;3789;47.064;15.482;2023-11-21T00:43:57;13.30;;;10.37;;
7495;SDS011;3789;47.064;15.482;2023-11-21T00:46:39;15.77;;;10.63;;
7495;SDS011;3789;47.064;15.482;2023-11-21T00:49:09;14.23;;;9.50;;
7495;SDS011;3789;47.064;15.482;2023-11-21T00:51:42;15.03;;;10.10;;
7495;SDS011;3789;47.064;15.482;2023-11-21T00:54:12;11.03;;;8.63;;
7495;SDS011;3789;47.064;15.482;2023-11-21T00:56:51;15.10;;;10.00;;
7495;SDS011;3789;47.064;15.482;2023-11-21T00:59:23;13.07;;;9.70;;
7495;SDS011;3789;47.064;15.482;2023-11-21T01:01:53;14.53;;;10.03;;
7495;SDS011;3789;47.064;15.482;2023-11-21T01:04:24;13.97;;;10.13;;
7495;SDS011;3789;47.064;15.482;2023-11-21T01:06:58;17.53;;;10.60;;
7495;SDS011;3789;47.064;15.482;2023-11-21T01:09:27;18.03;;;10.47;;
7495;SDS011;3789;47.064;15.482;2023-11-21T01:12:02;19.70;;;10.07;;
7495;SDS011;3789;47.064;15.482;2023-11-21T01:14:32;16.57;;;9.07;;
7495;SDS011;3789;47.064;15.482;2023-11-21T01:17:06;11.80;;;9.23;;
7495;SDS011;3789;47.064;15.482;2023-11-21T01:19:36;12.60;;;8.13;;
7495;SDS011;3789;47.064;15.482;2023-11-21T01:22:11;12.40;;;8.60;;
7495;SDS011;3789;47.064;15.482;2023-11-21T01:24:42;13.67;;;8.67;;
7495;SDS011;3789;47.064;15.482;2023-11-21T01:27:12;9.27;;;7.03;;
7495;SDS011;3789;47.064;15.482;2023-11-21T01:29:45;9.17;;;7.13;;
7495;SDS011;3789;47.064;15.482;2023-11-21T01:32:23;8.57;;;5.60;;
7495;SDS011;3789;47.064;15.482;2023-11-21T01:35:03;6.60;;;5.23;;
7495;SDS011;3789;47.064;15.482;2023-11-21T01:37:37;7.80;;;5.23;;
7495;SDS011;3789;47.064;15.482;2023-11-21T01:40:23;5.47;;;4.43;;
7495;SDS011;3789;47.064;15.482;2023-11-21T01:42:55;5.63;;;3.97;;
7495;SDS011;3789;47.064;15.482;2023-11-21T01:45:26;5.50;;;3.63;;
7495;SDS011;3789;47.064;15.482;2023-11-21T01:47:55;6.90;;;4.53;;
7495;SDS011;3789;47.064;15.482;2023-11-21T01:50:45;8.63;;;4.90;;
7495;SDS011;3789;47.064;15.482;2023-11-21T01:53:13;5.60;;;4.20;;
7495;SDS011;3789;47.064;15.482;2023-11-21T01:55:43;8.50;;;5.53;;
7495;SDS011;3789;47.064;15.482;2023-11-21T01:58:23;9.30;;;6.97;;
7495;SDS011;3789;47.064;15.482;2023-11-21T02:00:55;11.13;;;7.60;;
7495;SDS011;3789;47.064;15.482;2023-11-21T02:03:26;11.20;;;7.87;;
7495;SDS011;3789;47.064;15.482;2023-11-21T02:05:56;10.67;;;6.97;;
7495;SDS011;3789;47.064;15.482;2023-11-21T02:08:27;8.97;;;6.40;;
7495;SDS011;3789;47.064;15.482;2023-11-21T02:10:56;8.90;;;5.83;;
7495;SDS011;3789;47.064;15.482;2023-11-21T02:13:27;9.53;;;6.50;;
7495;SDS011;3789;47.064;15.482;2023-11-21T02:15:57;6.50;;;4.77;;
7495;SDS011;3789;47.064;15.482;2023-11-21T02:18:27;7.07;;;4.83;;
7495;SDS011;3789;47.064;15.482;2023-11-21T02:20:56;6.13;;;4.10;;
7495;SDS011;3789;47.064;15.482;2023-11-21T02:23:37;4.97;;;3.90;;
7495;SDS011;3789;47.064;15.482;2023-11-21T02:26:11;4.77;;;4.03;;
7495;SDS011;3789;47.064;15.482;2023-11-21T02:28:43;4.00;;;3.60;;
7495;SDS011;3789;47.064;15.482;2023-11-21T02:31:13;6.37;;;3.73;;
7495;SDS011;3789;47.064;15.482;2023-11-21T02:33:55;5.63;;;3.70;;
7495;SDS011;3789;47.064;15.482;2023-11-21T02:36:31;4.23;;;3.53;;
7495;SDS011;3789;47.064;15.482;2023-11-21T02:39:02;6.17;;;3.63;;
7495;SDS011;3789;47.064;15.482;2023-11-21T02:41:33;3.67;;;3.13;;
7495;SDS011;3789;47.064;15.482;2023-11-21T02:44:07;4.23;;;3.40;;
7495;SDS011;3789;47.064;15.482;2023-11-21T02:46:36;3.73;;;2.93;;
7495;SDS011;3789;47.064;15.482;2023-11-21T02:49:12;5.03;;;3.30;;
7495;SDS011;3789;47.064;15.482;2023-11-21T02:51:43;4.80;;;3.97;;
7495;SDS011;3789;47.064;15.482;2023-11-21T02:54:13;6.07;;;4.37;;
7495;SDS011;3789;47.064;15.482;2023-11-21T02:56:49;4.53;;;3.20;;
7495;SDS011;3789;47.064;15.482;2023-11-21T02:59:27;6.33;;;4.30;;
7495;SDS011;3789;47.064;15.482;2023-11-21T03:02:05;3.70;;;3.27;;
7495;SDS011;3789;47.064;15.482;2023-11-21T03:04:36;3.37;;;2.83;;
7495;SDS011;3789;47.064;15.482;2023-11-21T03:07:06;3.83;;;2.80;;
7495;SDS011;3789;47.064;15.482;2023-11-21T03:09:35;2.97;;;2.67;;
7495;SDS011;3789;47.064;15.482;2023-11-21T03:12:04;2.90;;;2.50;;
7495;SDS011;3789;47.064;15.482;2023-11-21T03:14:40;2.90;;;2.60;;
7495;SDS011;3789;47.064;15.482;2023-11-21T03:17:16;5.50;;;3.20;;
7495;SDS011;3789;47.064;15.482;2023-11-21T03:19:47;5.13;;;3.20;;
7495;SDS011;3789;47.064;15.482;2023-11-21T03:22:15;4.03;;;2.77;;
7495;SDS011;3789;47.064;15.482;2023-11-21T03:24:45;4.23;;;2.50;;
7495;SDS011;3789;47.064;15.482;2023-11-21T03:27:14;4.33;;;3.07;;
7495;SDS011;3789;47.064;15.482;2023-11-21T03:29:52;4.40;;;3.10;;
7495;SDS011;3789;47.064;15.482;2023-11-21T03:32:21;5.87;;;3.10;;
7495;SDS011;3789;47.064;15.482;2023-11-21T03:34:56;5.97;;;3.23;;
7495;SDS011;3789;47.064;15.482;2023-11-21T03:37:26;4.33;;;2.80;;
7495;SDS011;3789;47.064;15.482;2023-11-21T03:39:58;4.50;;;2.77;;
7495;SDS011;3789;47.064;15.482;2023-11-21T03:42:49;4.03;;;2.70;;
7495;SDS011;3789;47.064;15.482;2023-11-21T03:45:18;3.50;;;2.43;;
7495;SDS011;3789;47.064;15.482;2023-11-21T03:47:49;4.60;;;3.10;;
7495;SDS011;3789;47.064;15.482;2023-11-21T03:50:18;5.20;;;2.70;;
7495;SDS011;3789;47.064;15.482;2023-11-21T03:52:50;3.67;;;2.97;;
7495;SDS011;3789;47.064;15.482;2023-11-21T03:55:18;3.10;;;2.60;;
7495;SDS011;3789;47.064;15.482;2023-11-21T03:57:47;4.10;;;3.03;;
7495;SDS011;3789;47.064;15.482;2023-11-21T04:00:16;6.07;;;3.57;;
7495;SDS011;3789;47.064;15.482;2023-11-21T04:02:47;4.23;;;2.90;;
7495;SDS011;3789;47.064;15.482;2023-11-21T04:05:14;2.80;;;2.47;;
7495;SDS011;3789;47.064;15.482;2023-11-21T04:07:43;3.47;;;2.83;;
7495;SDS011;3789;47.064;15.482;2023-11-21T04:10:11;3.40;;;3.10;;
7495;SDS011;3789;47.064;15.482;2023-11-21T04:12:45;6.33;;;4.63;;
7495;SDS011;3789;47.064;15.482;2023-11-21T04:15:22;5.50;;;4.67;;
7495;SDS011;3789;47.064;15.482;2023-11-21T04:17:56;5.37;;;4.07;;
7495;SDS011;3789;47.064;15.482;2023-11-21T04:20:26;5.17;;;4.13;;
7495;SDS011;3789;47.064;15.482;2023-11-21T04:22:54;4.77;;;4.03;;
7495;SDS011;3789;47.064;15.482;2023-11-21T04:25:32;5.90;;;4.50;;
7495;SDS011;3789;47.064;15.482;2023-11-21T04:28:02;5.20;;;4.17;;
7495;SDS011;3789;47.064;15.482;2023-11-21T04:30:32;5.50;;;4.63;;
7495;SDS011;3789;47.064;15.482;2023-11-21T04:33:02;7.13;;;5.60;;
7495;SDS011;3789;47.064;15.482;2023-11-21T04:35:32;10.70;;;7.87;;
7495;SDS011;3789;47.064;15.482;2023-11-21T04:38:06;7.70;;;5.80;;
7495;SDS011;3789;47.064;15.482;2023-11-21T04:40:35;8.63;;;7.47;;
7495;SDS011;3789;47.064;15.482;2023-11-21T04:43:02;6.27;;;4.80;;
7495;SDS011;3789;47.064;15.482;2023-11-21T04:45:34;6.60;;;5.00;;
7495;SDS011;3789;47.064;15.482;2023-11-21T04:48:07;6.73;;;4.60;;
7495;SDS011;3789;47.064;15.482;2023-11-21T04:50:37;7.33;;;4.07;;
7495;SDS011;3789;47.064;15.482;2023-11-21T04:53:09;4.40;;;3.40;;
7495;SDS011;3789;47.064;15.482;2023-11-21T04:55:38;5.77;;;3.03;;
7495;SDS011;3789;47.064;15.482;2023-11-21T04:58:08;3.73;;;2.93;;
7495;SDS011;3789;47.064;15.482;2023-11-21T05:00:38;3.57;;;3.23;;
7495;SDS011;3789;47.064;15.482;2023-11-21T05:03:11;4.00;;;3.40;;
7495;SDS011;3789;47.064;15.482;2023-11-21T05:05:41;5.17;;;3.57;;
7495;SDS011;3789;47.064;15.482;2023-11-21T05:08:11;5.37;;;3.27;;
7495;SDS011;3789;47.064;15.482;2023-11-21T05:10:41;4.07;;;2.90;;
7495;SDS011;3789;47.064;15.482;2023-11-21T05:13:11;4.07;;;3.30;;
7495;SDS011;3789;47.064;15.482;2023-11-21T05:15:40;5.73;;;4.10;;
7495;SDS011;3789;47.064;15.482;2023-11-21T05:18:21;4.93;;;3.90;;
7495;SDS011;3789;47.064;15.482;2023-11-21T05:20:51;5.00;;;4.17;;
7495;SDS011;3789;47.064;15.482;2023-11-21T05:23:21;6.37;;;4.30;;
7495;SDS011;3789;47.064;15.482;2023-11-21T05:26:01;5.93;;;4.63;;
7495;SDS011;3789;47.064;15.482;2023-11-21T05:28:32;7.10;;;5.33;;
7495;SDS011;3789;47.064;15.482;2023-11-21T05:31:02;9.00;;;6.70;;
7495;SDS011;3789;47.064;15.482;2023-11-21T05:33:42;7.03;;;5.90;;
7495;SDS011;3789;47.064;15.482;2023-11-21T05:36:10;6.63;;;5.13;;
7495;SDS011;3789;47.064;15.482;2023-11-21T05:38:41;6.47;;;4.93;;
7495;SDS011;3789;47.064;15.482;2023-11-21T05:41:09;5.60;;;4.77;;
7495;SDS011;3789;47.064;15.482;2023-11-21T05:43:40;5.77;;;4.77;;
7495;SDS011;3789;47.064;15.482;2023-11-21T05:46:08;6.67;;;5.27;;
7495;SDS011;3789;47.064;15.482;2023-11-21T05:48:37;7.17;;;5.10;;
7495;SDS011;3789;47.064;15.482;2023-11-21T05:51:07;6.83;;;5.23;;
7495;SDS011;3789;47.064;15.482;2023-11-21T05:53:40;7.73;;;5.27;;
7495;SDS011;3789;47.064;15.482;2023-11-21T05:56:17;7.30;;;5.00;;
7495;SDS011;3789;47.064;15.482;2023-11-21T05:58:50;7.77;;;5.27;;
7495;SDS011;3789;47.064;15.482;2023-11-21T06:01:27;8.53;;;5.10;;
7495;SDS011;3789;47.064;15.482;2023-11-21T06:03:55;7.00;;;6.30;;
7495;SDS011;3789;47.064;15.482;2023-11-21T06:06:26;8.93;;;6.77;;
7495;SDS011;3789;47.064;15.482;2023-11-21T06:09:05;10.13;;;7.00;;
7495;SDS011;3789;47.064;15.482;2023-11-21T06:11:37;14.07;;;9.60;;
7495;SDS011;3789;47.064;15.482;2023-11-21T06:14:07;12.47;;;9.17;;
7495;SDS011;3789;47.064;15.482;2023-11-21T06:16:37;9.13;;;8.23;;
7495;SDS011;3789;47.064;15.482;2023-11-21T06:19:07;11.23;;;7.53;;
7495;SDS011;3789;47.064;15.482;2023-11-21T06:21:40;10.40;;;7.03;;
7495;SDS011;3789;47.064;15.482;2023-11-21T06:24:15;8.77;;;7.27;;
7495;SDS011;3789;47.064;15.482;2023-11-21T06:26:54;9.70;;;7.50;;
7495;SDS011;3789;47.064;15.482;2023-11-21T06:29:24;9.60;;;7.20;;
7495;SDS011;3789;47.064;15.482;2023-11-21T06:31:53;7.20;;;6.50;;
7495;SDS011;3789;47.064;15.482;2023-11-21T06:34:25;11.43;;;7.00;;
7495;SDS011;3789;47.064;15.482;2023-11-21T06:36:58;9.80;;;7.13;;
7495;SDS011;3789;47.064;15.482;2023-11-21T06:39:28;7.97;;;6.90;;
7495;SDS011;3789;47.064;15.482;2023-11-21T06:41:57;8.13;;;6.83;;
7495;SDS011;3789;47.064;15.482;2023-11-21T06:44:28;8.97;;;5.97;;
7495;SDS011;3789;47.064;15.482;2023-11-21T06:46:57;8.43;;;5.93;;
7495;SDS011;3789;47.064;15.482;2023-11-21T06:49:29;7.10;;;5.23;;
7495;SDS011;3789;47.064;15.482;2023-11-21T06:52:00;7.40;;;5.50;;
7495;SDS011;3789;47.064;15.482;2023-11-21T06:54:34;7.20;;;5.93;;
7495;SDS011;3789;47.064;15.482;2023-11-21T06:57:06;8.47;;;6.90;;
7495;SDS011;3789;47.064;15.482;2023-11-21T06:59:35;9.07;;;6.10;;
7495;SDS011;3789;47.064;15.482;2023-11-21T07:02:04;6.70;;;5.33;;
7495;SDS011;3789;47.064;15.482;2023-11-21T07:04:36;7.30;;;5.73;;
7495;SDS011;3789;47.064;15.482;2023-11-21T07:07:06;9.30;;;6.10;;
7495;SDS011;3789;47.064;15.482;2023-11-21T07:09:36;6.73;;;5.20;;
7495;SDS011;3789;47.064;15.482;2023-11-21T07:12:06;8.80;;;5.33;;
7495;SDS011;3789;47.064;15.482;2023-11-21T07:14:34;6.73;;;5.23;;
7495;SDS011;3789;47.064;15.482;2023-11-21T07:17:03;7.93;;;6.23;;
7495;SDS011;3789;47.064;15.482;2023-11-21T07:19:40;7.97;;;6.23;;
7495;SDS011;3789;47.064;15.482;2023-11-21T07:22:11;10.30;;;6.53;;
7495;SDS011;3789;47.064;15.482;2023-11-21T07:24:49;9.57;;;6.27;;
7495;SDS011;3789;47.064;15.482;2023-11-21T07:27:22;8.50;;;5.97;;
7495;SDS011;3789;47.064;15.482;2023-11-21T07:29:51;6.40;;;5.37;;
7495;SDS011;3789;47.064;15.482;2023-11-21T07:32:24;9.43;;;5.60;;
7495;SDS011;3789;47.064;15.482;2023-11-21T07:34:59;7.60;;;5.10;;
7495;SDS011;3789;47.064;15.482;2023-11-21T07:37:32;6.60;;;5.50;;
7495;SDS011;3789;47.064;15.482;2023-11-21T07:40:07;10.30;;;5.43;;
7495;SDS011;3789;47.064;15.482;2023-11-21T07:42:40;8.60;;;6.80;;
7495;SDS011;3789;47.064;15.482;2023-11-21T07:45:14;8.80;;;7.43;;
7495;SDS011;3789;47.064;15.482;2023-11-21T07:47:49;10.23;;;7.67;;
7495;SDS011;3789;47.064;15.482;2023-11-21T07:50:19;8.30;;;6.57;;
7495;SDS011;3789;47.064;15.482;2023-11-21T07:52:53;12.80;;;7.10;;
7495;SDS011;3789;47.064;15.482;2023-11-21T07:55:24;8.67;;;6.10;;
7495;SDS011;3789;47.064;15.482;2023-11-21T07:57:52;11.30;;;6.90;;
7495;SDS011;3789;47.064;15.482;2023-11-21T08:00:26;9.60;;;6.10;;
7495;SDS011;3789;47.064;15.482;2023-11-21T08:02:58;7.73;;;5.90;;
7495;SDS011;3789;47.064;15.482;2023-11-21T08:05:27;8.17;;;5.90;;
7495;SDS011;3789;47.064;15.482;2023-11-21T08:08:02;8.63;;;6.67;;
7495;SDS011;3789;47.064;15.482;2023-11-21T08:10:32;9.50;;;6.50;;
7495;SDS011;3789;47.064;15.482;2023-11-21T08:13:04;10.57;;;6.87;;
7495;SDS011;3789;47.064;15.482;2023-11-21T08:15:41;11.43;;;6.40;;
7495;SDS011;3789;47.064;15.482;2023-11-21T08:18:14;9.33;;;6.77;;
7495;SDS011;3789;47.064;15.482;2023-11-21T08:20:51;9.33;;;7.37;;
7495;SDS011;3789;47.064;15.482;2023-11-21T08:23:27;9.30;;;6.50;;
7495;SDS011;3789;47.064;15.482;2023-11-21T08:25:56;8.43;;;6.33;;
7495;SDS011;3789;47.064;15.482;2023-11-21T08:28:25;6.73;;;6.00;;
7495;SDS011;3789;47.064;15.482;2023-11-21T08:31:02;9.83;;;6.70;;
7495;SDS011;3789;47.064;15.482;2023-11-21T08:33:35;7.37;;;5.70;;
7495;SDS011;3789;47.064;15.482;2023-11-21T08:36:09;11.93;;;6.70;;
7495;SDS011;3789;47.064;15.482;2023-11-21T08:38:40;9.07;;;6.63;;
7495;SDS011;3789;47.064;15.482;2023-11-21T08:41:09;8.10;;;6.73;;
7495;SDS011;3789;47.064;15.482;2023-11-21T08:43:42;9.33;;;7.30;;
7495;SDS011;3789;47.064;15.482;2023-11-21T08:46:19;8.70;;;6.77;;
7495;SDS011;3789;47.064;15.482;2023-11-21T08:48:49;7.87;;;6.17;;
7495;SDS011;3789;47.064;15.482;2023-11-21T08:51:20;7.80;;;5.90;;
7495;SDS011;3789;47.064;15.482;2023-11-21T08:53:50;8.00;;;5.67;;
7495;SDS011;3789;47.064;15.482;2023-11-21T08:56:20;6.73;;;5.00;;
7495;SDS011;3789;47.064;15.482;2023-11-21T08:58:51;7.47;;;5.37;;
7495;SDS011;3789;47.064;15.482;2023-11-21T09:01:31;7.87;;;4.30;;
7495;SDS011;3789;47.064;15.482;2023-11-21T09:04:02;6.03;;;4.83;;
7495;SDS011;3789;47.064;15.482;2023-11-21T09:06:30;6.90;;;4.73;;
7495;SDS011;3789;47.064;15.482;2023-11-21T09:09:00;8.60;;;5.13;;
7495;SDS011;3789;47.064;15.482;2023-11-21T09:11:34;6.37;;;4.63;;
7495;SDS011;3789;47.064;15.482;2023-11-21T09:14:06;7.83;;;5.30;;
7495;SDS011;3789;47.064;15.482;2023-11-21T09:16:41;7.43;;;4.83;;
7495;SDS011;3789;47.064;15.482;2023-11-21T09:19:13;7.93;;;5.27;;
7495;SDS011;3789;47.064;15.482;2023-11-21T09:21:41;6.77;;;4.50;;
7495;SDS011;3789;47.064;15.482;2023-11-21T09:24:11;5.30;;;4.80;;
7495;SDS011;3789;47.064;15.482;2023-11-21T09:26:40;5.93;;;4.90;;
7495;SDS011;3789;47.064;15.482;2023-11-21T09:29:09;6.67;;;4.80;;
7495;SDS011;3789;47.064;15.482;2023-11-21T09:31:40;6.60;;;4.50;;
7495;SDS011;3789;47.064;15.482;2023-11-21T09:34:12;4.83;;;3.70;;
7495;SDS011;3789;47.064;15.482;2023-11-21T09:36:49;4.77;;;4.20;;
7495;SDS011;3789;47.064;15.482;2023-11-21T09:39:21;7.33;;;4.30;;
7495;SDS011;3789;47.064;15.482;2023-11-21T09:41:52;6.10;;;4.30;;
7495;SDS011;3789;47.064;15.482;2023-11-21T09:44:35;6.50;;;3.93;;
7495;SDS011;3789;47.064;15.482;2023-11-21T09:47:30;7.00;;;4.03;;
7495;SDS011;3789;47.064;15.482;2023-11-21T09:50:14;7.47;;;4.30;;
7495;SDS011;3789;47.064;15.482;2023-11-21T09:55:54;5.43;;;4.10;;
7495;SDS011;3789;47.064;15.482;2023-11-21T09:58:25;5.93;;;4.40;;
7495;SDS011;3789;47.064;15.482;2023-11-21T10:00:58;5.03;;;4.27;;
7495;SDS011;3789;47.064;15.482;2023-11-21T10:03:35;7.13;;;4.30;;
7495;SDS011;3789;47.064;15.482;2023-11-21T10:06:16;6.53;;;4.83;;
7495;SDS011;3789;47.064;15.482;2023-11-21T10:08:53;9.27;;;5.23;;
7495;SDS011;3789;47.064;15.482;2023-11-21T10:11:29;6.97;;;5.00;;
7495;SDS011;3789;47.064;15.482;2023-11-21T10:14:05;6.73;;;5.33;;
7495;SDS011;3789;47.064;15.482;2023-11-21T10:16:50;7.30;;;5.43;;
7495;SDS011;3789;47.064;15.482;2023-11-21T10:19:26;6.67;;;5.13;;
7495;SDS011;3789;47.064;15.482;2023-11-21T10:21:57;7.83;;;4.90;;
7495;SDS011;3789;47.064;15.482;2023-11-21T10:24:31;5.37;;;4.70;;
7495;SDS011;3789;47.064;15.482;2023-11-21T10:27:20;7.00;;;4.87;;
7495;SDS011;3789;47.064;15.482;2023-11-21T10:29:51;6.07;;;4.63;;
7495;SDS011;3789;47.064;15.482;2023-11-21T10:32:21;4.70;;;4.20;;
7495;SDS011;3789;47.064;15.482;2023-11-21T10:35:01;7.73;;;4.43;;
7495;SDS011;3789;47.064;15.482;2023-11-21T10:37:39;5.30;;;4.00;;
7495;SDS011;3789;47.064;15.482;2023-11-21T10:40:09;7.40;;;4.13;;
7495;SDS011;3789;47.064;15.482;2023-11-21T10:42:40;5.00;;;4.27;;
7495;SDS011;3789;47.064;15.482;2023-11-21T10:45:14;6.03;;;4.43;;
7495;SDS011;3789;47.064;15.482;2023-11-21T10:47:44;6.77;;;4.73;;
7495;SDS011;3789;47.064;15.482;2023-11-21T10:50:14;6.93;;;4.93;;
7495;SDS011;3789;47.064;15.482;2023-11-21T10:52:47;6.10;;;4.87;;
7495;SDS011;3789;47.064;15.482;2023-11-21T10:55:22;6.47;;;5.37;;
7495;SDS011;3789;47.064;15.482;2023-11-21T10:57:55;6.20;;;5.30;;
7495;SDS011;3789;47.064;15.482;2023-11-21T11:00:37;8.37;;;6.17;;
7495;SDS011;3789;47.064;15.482;2023-11-21T11:03:10;9.20;;;6.50;;
7495;SDS011;3789;47.064;15.482;2023-11-21T11:05:45;8.37;;;6.40;;
7495;SDS011;3789;47.064;15.482;2023-11-21T11:08:24;9.87;;;6.70;;
7495;SDS011;3789;47.064;15.482;2023-11-21T11:10:55;9.70;;;6.83;;
7495;SDS011;3789;47.064;15.482;2023-11-21T11:13:28;8.20;;;6.37;;
7495;SDS011;3789;47.064;15.482;2023-11-21T11:16:02;8.70;;;6.23;;
7495;SDS011;3789;47.064;15.482;2023-11-21T11:18:35;7.50;;;6.40;;
7495;SDS011;3789;47.064;15.482;2023-11-21T11:21:13;6.97;;;5.93;;
7495;SDS011;3789;47.064;15.482;2023-11-21T11:28:04;8.07;;;5.50;;
7495;SDS011;3789;47.064;15.482;2023-11-21T11:31:00;6.87;;;5.50;;
7495;SDS011;3789;47.064;15.482;2023-11-21T11:34:17;6.33;;;4.97;;
7495;SDS011;3789;47.064;15.482;2023-11-21T11:37:04;7.27;;;5.33;;
7495;SDS011;3789;47.064;15.482;2023-11-21T11:39:40;8.13;;;5.90;;
7495;SDS011;3789;47.064;15.482;2023-11-21T11:42:16;9.77;;;6.27;;
7495;SDS011;3789;47.064;15.482;2023-11-21T11:44:50;8.20;;;6.20;;
7495;SDS011;3789;47.064;15.482;2023-11-21T11:47:22;7.63;;;5.90;;
7495;SDS011;3789;47.064;15.482;2023-11-21T11:50:05;7.20;;;5.33;;
7495;SDS011;3789;47.064;15.482;2023-11-21T11:52:44;7.47;;;6.27;;
7495;SDS011;3789;47.064;15.482;2023-11-21T11:55:57;10.10;;;5.93;;
7495;SDS011;3789;47.064;15.482;2023-11-21T11:59:02;7.37;;;5.63;;
7495;SDS011;3789;47.064;15.482;2023-11-21T12:01:40;7.53;;;6.00;;
7495;SDS011;3789;47.064;15.482;2023-11-21T12:06:55;7.67;;;5.40;;
7495;SDS011;3789;47.064;15.482;2023-11-21T12:09:33;7.80;;;6.00;;
7495;SDS011;3789;47.064;15.482;2023-11-21T12:12:03;7.30;;;6.60;;
7495;SDS011;3789;47.064;15.482;2023-11-21T12:14:35;8.23;;;6.43;;
7495;SDS011;3789;47.064;15.482;2023-11-21T12:17:11;8.27;;;6.50;;
7495;SDS011;3789;47.064;15.482;2023-11-21T12:19:43;8.87;;;5.77;;
7495;SDS011;3789;47.064;15.482;2023-11-21T12:22:18;8.40;;;6.20;;
7495;SDS011;3789;47.064;15.482;2023-11-21T12:24:48;9.63;;;6.07;;
7495;SDS011;3789;47.064;15.482;2023-11-21T12:27:17;10.20;;;6.40;;
7495;SDS011;3789;47.064;15.482;2023-11-21T12:29:50;6.80;;;6.07;;
7495;SDS011;3789;47.064;15.482;2023-11-21T12:32:26;7.63;;;5.97;;
7495;SDS011;3789;47.064;15.482;2023-11-21T12:34:55;9.40;;;5.90;;
7495;SDS011;3789;47.064;15.482;2023-11-21T12:37:25;6.40;;;5.00;;
7495;SDS011;3789;47.064;15.482;2023-11-21T12:39:58;6.50;;;4.60;;
7495;SDS011;3789;47.064;15.482;2023-11-21T12:42:27;5.80;;;4.50;;
7495;SDS011;3789;47.064;15.482;2023-11-21T12:47:50;5.37;;;4.70;;
7495;SDS011;3789;47.064;15.482;2023-11-21T12:50:44;6.23;;;4.83;;
7495;SDS011;3789;47.064;15.482;2023-11-21T12:53:17;8.00;;;5.00;;
7495;SDS011;3789;47.064;15.482;2023-11-21T12:55:55;8.27;;;5.47;;
7495;SDS011;3789;47.064;15.482;2023-11-21T12:58:28;6.77;;;5.00;;
7495;SDS011;3789;47.064;15.482;2023-11-21T13:00:59;6.20;;;4.57;;
7495;SDS011;3789;47.064;15.482;2023-11-21T13:03:31;8.27;;;5.13;;
7495;SDS011;3789;47.064;15.482;2023-11-21T13:06:14;6.67;;;5.13;;
7495;SDS011;3789;47.064;15.482;2023-11-21T13:08:46;5.87;;;4.80;;
7495;SDS011;3789;47.064;15.482;2023-11-21T13:11:14;6.23;;;5.07;;
7495;SDS011;3789;47.064;15.482;2023-11-21T13:13:47;8.27;;;5.47;;
7495;SDS011;3789;47.064;15.482;2023-11-21T13:16:23;8.40;;;5.40;;
7495;SDS011;3789;47.064;15.482;2023-11-21T13:18:55;7.37;;;5.03;;
7495;SDS011;3789;47.064;15.482;2023-11-21T13:21:26;7.43;;;5.93;;
7495;SDS011;3789;47.064;15.482;2023-11-21T13:24:04;7.60;;;5.63;;
7495;SDS011;3789;47.064;15.482;2023-11-21T13:26:32;7.60;;;5.83;;
7495;SDS011;3789;47.064;15.482;2023-11-21T13:29:02;6.47;;;5.63;;
7495;SDS011;3789;47.064;15.482;2023-11-21T13:31:34;7.73;;;6.00;;
7495;SDS011;3789;47.064;15.482;2023-11-21T13:34:05;8.03;;;5.80;;
7495;SDS011;3789;47.064;15.482;2023-11-21T13:36:37;13.20;;;6.77;;
7495;SDS011;3789;47.064;15.482;2023-11-21T13:39:06;8.73;;;6.13;;
7495;SDS011;3789;47.064;15.482;2023-11-21T13:41:44;7.17;;;6.33;;
7495;SDS011;3789;47.064;15.482;2023-11-21T13:44:16;7.33;;;6.27;;
7495;SDS011;3789;47.064;15.482;2023-11-21T13:47:11;7.10;;;6.40;;
7495;SDS011;3789;47.064;15.482;2023-11-21T13:49:40;7.70;;;6.23;;
7495;SDS011;3789;47.064;15.482;2023-11-21T13:52:12;6.97;;;5.57;;
7495;SDS011;3789;47.064;15.482;2023-11-21T13:54:45;7.37;;;6.20;;
7495;SDS011;3789;47.064;15.482;2023-11-21T13:57:20;7.77;;;6.03;;
7495;SDS011;3789;47.064;15.482;2023-11-21T13:59:47;8.37;;;6.00;;
7495;SDS011;3789;47.064;15.482;2023-11-21T14:02:16;7.50;;;5.50;;
7495;SDS011;3789;47.064;15.482;2023-11-21T14:04:55;8.70;;;5.73;;
7495;SDS011;3789;47.064;15.482;2023-11-21T14:07:47;6.47;;;5.47;;
7495;SDS011;3789;47.064;15.482;2023-11-21T14:10:17;5.83;;;5.20;;
7495;SDS011;3789;47.064;15.482;2023-11-21T14:12:50;6.00;;;5.00;;
7495;SDS011;3789;47.064;15.482;2023-11-21T14:15:20;7.90;;;4.73;;
7495;SDS011;3789;47.064;15.482;2023-11-21T14:17:51;7.57;;;4.87;;
7495;SDS011;3789;47.064;15.482;2023-11-21T14:20:20;6.37;;;4.50;;
7495;SDS011;3789;47.064;15.482;2023-11-21T14:22:52;7.40;;;4.97;;
7495;SDS011;3789;47.064;15.482;2023-11-21T14:25:30;7.23;;;5.37;;
7495;SDS011;3789;47.064;15.482;2023-11-21T14:28:03;6.80;;;5.10;;
7495;SDS011;3789;47.064;15.482;2023-11-21T14:30:34;6.67;;;5.20;;
7495;SDS011;3789;47.064;15.482;2023-11-21T14:33:11;8.10;;;5.33;;
7495;SDS011;3789;47.064;15.482;2023-11-21T14:36:07;8.73;;;5.77;;
7495;SDS011;3789;47.064;15.482;2023-11-21T14:38:38;9.83;;;6.53;;
7495;SDS011;3789;47.064;15.482;2023-11-21T14:41:17;8.43;;;6.23;;
7495;SDS011;3789;47.064;15.482;2023-11-21T14:43:54;11.90;;;7.50;;
7495;SDS011;3789;47.064;15.482;2023-11-21T14:46:27;13.07;;;7.67;;
7495;SDS011;3789;47.064;15.482;2023-11-21T14:48:58;10.93;;;7.60;;
7495;SDS011;3789;47.064;15.482;2023-11-21T14:51:47;14.13;;;9.53;;
7495;SDS011;3789;47.064;15.482;2023-11-21T14:54:58;11.83;;;9.00;;
7495;SDS011;3789;47.064;15.482;2023-11-21T14:58:11;13.37;;;9.60;;
7495;SDS011;3789;47.064;15.482;2023-11-21T15:01:04;10.83;;;8.80;;
7495;SDS011;3789;47.064;15.482;2023-11-21T15:03:54;10.63;;;8.10;;
7495;SDS011;3789;47.064;15.482;2023-11-21T15:06:26;13.00;;;9.07;;
7495;SDS011;3789;47.064;15.482;2023-11-21T15:09:14;12.57;;;7.90;;
7495;SDS011;3789;47.064;15.482;2023-11-21T15:11:56;10.20;;;7.97;;
7495;SDS011;3789;47.064;15.482;2023-11-21T15:14:33;13.73;;;10.00;;
7495;SDS011;3789;47.064;15.482;2023-11-21T15:17:24;14.67;;;10.27;;
7495;SDS011;3789;47.064;15.482;2023-11-21T15:19:53;15.47;;;9.93;;
7495;SDS011;3789;47.064;15.482;2023-11-21T15:22:44;13.03;;;8.50;;
7495;SDS011;3789;47.064;15.482;2023-11-21T15:25:15;13.03;;;8.03;;
7495;SDS011;3789;47.064;15.482;2023-11-21T15:27:44;11.27;;;8.00;;
7495;SDS011;3789;47.064;15.482;2023-11-21T15:30:20;11.20;;;8.60;;
7495;SDS011;3789;47.064;15.482;2023-11-21T15:33:00;11.07;;;8.40;;
7495;SDS011;3789;47.064;15.482;2023-11-21T15:35:31;9.77;;;8.07;;
7495;SDS011;3789;47.064;15.482;2023-11-21T15:38:05;11.60;;;7.87;;
7495;SDS011;3789;47.064;15.482;2023-11-21T15:40:43;11.33;;;8.27;;
7495;SDS011;3789;47.064;15.482;2023-11-21T15:43:15;10.03;;;7.43;;
7495;SDS011;3789;47.064;15.482;2023-11-21T15:45:45;9.83;;;7.47;;
7495;SDS011;3789;47.064;15.482;2023-11-21T15:48:23;13.43;;;8.07;;
7495;SDS011;3789;47.064;15.482;2023-11-21T15:50:54;8.37;;;7.37;;